Time;durP1;ratioP1;P1;durP2;ratioP2;P2;SDS_P1;SDS_P2;PMS_P1;PMS_P2;Temp;Humidity;BMP_temperature;BMP_pressure;BME280_temperature;BME280_humidity;BME280_pressure;Samples;Min_cycle;Max_cycle;Signal;HPM_P1;HPM_P2
2023/06/02 00:01:24;;;;;;;0.70;0.70;;;;;;;20.73;100.00;99954.22;5042339;28;20677;-72
2023/06/02 00:03:53;;;;;;;0.60;0.60;;;;;;;20.74;100.00;99954.19;5052156;28;20223;-72
2023/06/02 00:06:21;;;;;;;0.70;0.70;;;;;;;20.80;100.00;99949.66;5013713;28;20745;-72
2023/06/02 00:08:48;;;;;;;0.80;0.80;;;;;;;20.74;100.00;99950.69;5008203;28;20208;-72
2023/06/02 00:11:15;;;;;;;0.60;0.60;;;;;;;20.70;100.00;99946.41;5051573;28;20198;-72
2023/06/02 00:13:43;;;;;;;0.60;0.60;;;;;;;20.67;100.00;99933.31;5052046;28;20231;-72
2023/06/02 00:16:12;;;;;;;0.60;0.60;;;;;;;20.68;100.00;99954.38;5017308;28;20202;-72
2023/06/02 00:18:39;;;;;;;3.05;1.00;;;;;;;20.54;100.00;99921.41;5013858;28;20246;-72
2023/06/02 00:21:08;;;;;;;0.70;0.70;;;;;;;20.73;100.00;99948.94;5044975;28;20210;-71
2023/06/02 00:23:36;;;;;;;0.68;0.68;;;;;;;20.60;100.00;99910.69;5051944;28;20258;-71
2023/06/02 00:26:03;;;;;;;0.60;0.60;;;;;;;20.53;100.00;99901.22;5051775;28;20195;-71
2023/06/02 00:28:30;;;;;;;0.70;0.70;;;;;;;20.66;100.00;99936.84;5051981;28;20206;-71
2023/06/02 00:30:57;;;;;;;0.70;0.70;;;;;;;20.63;100.00;99929.03;5051730;28;20642;-72
2023/06/02 00:33:24;;;;;;;0.70;0.70;;;;;;;20.64;100.00;99934.28;5052131;28;20251;-71
2023/06/02 00:35:51;;;;;;;1.17;1.17;;;;;;;20.66;100.00;99936.84;5051366;28;20201;-72
2023/06/02 00:38:18;;;;;;;0.70;0.70;;;;;;;20.67;100.00;99934.19;5051869;28;20602;-72
2023/06/02 00:40:46;;;;;;;0.60;0.60;;;;;;;20.72;100.00;99932.28;5052274;28;20639;-72
2023/06/02 00:43:13;;;;;;;0.70;0.70;;;;;;;20.56;100.00;99911.66;5051581;28;20222;-72
2023/06/02 00:45:40;;;;;;;0.65;0.65;;;;;;;20.73;100.00;99930.50;5051875;28;20713;-72
2023/06/02 00:48:07;;;;;;;0.63;0.63;;;;;;;20.66;100.00;99924.53;5051535;28;20261;-72
2023/06/02 00:50:34;;;;;;;1.08;1.08;;;;;;;20.69;100.00;99932.34;5051971;28;20199;-72
2023/06/02 00:53:02;;;;;;;0.60;0.60;;;;;;;20.73;100.00;99925.22;5051729;28;20226;-71
2023/06/02 00:55:31;;;;;;;0.70;0.70;;;;;;;20.65;100.00;99922.81;5051556;28;20226;-71
2023/06/02 00:58:03;;;;;;;0.50;0.50;;;;;;;20.71;100.00;99927.91;5051262;28;20670;-71
2023/06/02 01:00:33;;;;;;;0.70;0.70;;;;;;;20.56;100.00;99919.56;5051897;28;20207;-72
2023/06/02 01:03:00;;;;;;;0.60;0.60;;;;;;;20.52;100.00;99918.81;5051504;28;20208;-72
2023/06/02 01:05:27;;;;;;;0.70;0.70;;;;;;;20.56;100.00;99919.56;5051874;28;20203;-72
2023/06/02 01:07:58;;;;;;;0.70;0.70;;;;;;;20.56;100.00;99903.78;5051058;28;20260;-72
2023/06/02 01:10:25;;;;;;;0.60;0.60;;;;;;;20.47;100.00;99914.56;5051119;28;20195;-72
2023/06/02 01:12:54;;;;;;;0.60;0.60;;;;;;;20.49;100.00;99918.03;5049170;28;20698;-72
2023/06/02 01:15:22;;;;;;;0.70;0.70;;;;;;;20.52;100.00;99933.75;5050276;28;20195;-72
2023/06/02 01:17:50;;;;;;;0.68;0.68;;;;;;;20.41;100.00;99926.13;5050509;28;20195;-72
2023/06/02 01:20:21;;;;;;;0.77;0.77;;;;;;;20.40;100.00;99916.53;5049453;28;20261;-71
2023/06/02 01:23:01;;;;;;;0.70;0.70;;;;;;;20.34;100.00;99910.53;5051417;28;20230;-72
2023/06/02 01:25:29;;;;;;;0.70;0.70;;;;;;;20.19;100.00;99912.66;5039924;28;20730;-72
2023/06/02 01:27:58;;;;;;;0.70;0.70;;;;;;;19.88;100.00;99888.03;5032362;28;20626;-72
2023/06/02 01:30:25;;;;;;;0.73;0.73;;;;;;;19.91;100.00;99903.75;5042147;28;20287;-72
2023/06/02 01:32:59;;;;;;;0.90;0.90;;;;;;;19.87;100.00;99904.72;5014149;28;20659;-72
2023/06/02 01:35:30;;;;;;;1.65;0.85;;;;;;;19.46;100.00;99831.25;5029038;28;20208;-72
2023/06/02 01:38:00;;;;;;;0.70;0.70;;;;;;;19.73;100.00;99893.69;5044931;28;20608;-72
2023/06/02 01:40:30;;;;;;;0.70;0.70;;;;;;;19.52;100.00;99868.78;5036561;28;20220;-72
2023/06/02 01:43:00;;;;;;;0.70;0.70;;;;;;;19.68;100.00;99895.59;5035853;28;20215;-72
2023/06/02 01:45:29;;;;;;;0.98;0.98;;;;;;;19.52;100.00;99881.06;5050710;28;20197;-72
2023/06/02 01:48:02;;;;;;;0.75;0.75;;;;;;;19.65;100.00;99895.66;5050826;28;20191;-72
2023/06/02 01:50:29;;;;;;;0.82;0.82;;;;;;;19.47;100.00;99875.94;5051196;28;20245;-72
2023/06/02 01:52:56;;;;;;;0.70;0.70;;;;;;;19.40;100.00;99873.47;5050843;28;20227;-72
2023/06/02 01:55:23;;;;;;;0.90;0.90;;;;;;;19.30;100.00;99872.78;5050799;28;20648;-72
2023/06/02 01:57:51;;;;;;;0.70;0.70;;;;;;;19.42;100.00;99876.94;5051235;28;20253;-72
2023/06/02 02:00:19;;;;;;;0.60;0.60;;;;;;;19.29;100.00;99860.56;5050758;28;20204;-72
2023/06/02 02:02:46;;;;;;;0.68;0.68;;;;;;;19.47;100.00;99881.22;5032518;28;20207;-72
2023/06/02 02:05:13;;;;;;;0.70;0.70;;;;;;;19.39;100.00;99884.88;5051157;28;20207;-72
2023/06/02 02:07:41;;;;;;;0.80;0.80;;;;;;;19.35;100.00;99886.72;5046861;28;20188;-72
2023/06/02 02:10:09;;;;;;;0.70;0.70;;;;;;;19.30;100.00;99884.19;5011454;28;20211;-72
2023/06/02 02:12:36;;;;;;;0.70;0.70;;;;;;;19.24;100.00;99884.34;5015680;28;20207;-72
2023/06/02 02:15:06;;;;;;;0.60;0.60;;;;;;;19.33;100.00;99882.41;5050816;28;20216;-72
2023/06/02 02:17:33;;;;;;;0.60;0.60;;;;;;;19.14;100.00;99861.81;5016596;28;20670;-72
2023/06/02 02:20:00;;;;;;;0.70;0.70;;;;;;;19.19;100.00;99870.41;5051101;28;20295;-72
2023/06/02 02:22:27;;;;;;;0.70;0.70;;;;;;;19.06;100.00;99873.38;5015663;28;20265;-72
2023/06/02 02:24:54;;;;;;;1.00;1.00;;;;;;;19.11;100.00;99869.75;5050912;28;20548;-72
2023/06/02 02:27:21;;;;;;;0.70;0.70;;;;;;;18.76;100.00;99796.13;5051193;28;20203;-72
2023/06/02 02:29:47;;;;;;;0.70;0.70;;;;;;;19.10;100.00;99854.88;5054873;28;20199;-72
2023/06/02 02:32:16;;;;;;;0.65;0.65;;;;;;;19.24;100.00;99863.31;5053946;28;20584;-73
2023/06/02 02:34:45;;;;;;;0.63;0.63;;;;;;;19.14;100.00;99871.44;5054396;28;20223;-72
2023/06/02 02:37:12;;;;;;;0.82;0.82;;;;;;;19.15;100.00;99847.78;5019074;28;20254;-72
2023/06/02 02:39:40;;;;;;;0.70;0.70;;;;;;;19.27;100.00;99857.09;5053593;28;20246;-72
2023/06/02 02:42:07;;;;;;;0.60;0.60;;;;;;;19.40;100.00;99862.94;5054278;28;20214;-73
2023/06/02 02:44:34;;;;;;;0.70;0.70;;;;;;;19.23;100.00;99848.44;5053961;28;20207;-73
2023/06/02 02:47:01;;;;;;;0.70;0.70;;;;;;;19.27;100.00;99857.97;5054082;28;20195;-72
2023/06/02 02:49:30;;;;;;;0.70;0.70;;;;;;;19.33;100.00;99852.56;5053598;28;20554;-72
2023/06/02 02:51:57;;;;;;;0.70;0.70;;;;;;;19.24;100.00;99852.78;5054268;28;20624;-72
2023/06/02 02:54:25;;;;;;;0.63;0.63;;;;;;;19.30;100.00;99851.75;5053804;28;20329;-73
2023/06/02 02:56:52;;;;;;;0.70;0.70;;;;;;;19.20;100.00;99840.63;5053755;28;20207;-72
2023/06/02 02:59:20;;;;;;;0.60;0.60;;;;;;;19.38;100.00;99859.47;5053566;28;20650;-72
2023/06/02 03:01:47;;;;;;;0.80;0.80;;;;;;;19.41;100.00;99867.28;5053672;28;20200;-72
2023/06/02 03:04:18;;;;;;;0.70;0.70;;;;;;;19.39;100.00;99862.06;5018499;28;20214;-72
2023/06/02 03:06:48;;;;;;;0.70;0.70;;;;;;;19.53;100.00;99869.66;5052657;28;20748;-71
2023/06/02 03:09:16;;;;;;;0.70;0.70;;;;;;;19.73;100.00;99862.97;5053719;28;20222;-72
2023/06/02 03:11:44;;;;;;;0.60;0.60;;;;;;;19.79;100.00;99885.66;5053092;28;20231;-70
2023/06/02 03:14:11;;;;;;;1.08;1.08;;;;;;;19.97;100.00;99882.56;5053058;28;20322;-70
2023/06/02 03:16:40;;;;;;;0.60;0.60;;;;;;;20.37;100.00;99886.78;5053424;28;20206;-70
2023/06/02 03:19:07;;;;;;;0.70;0.70;;;;;;;20.77;100.00;99884.69;5043942;28;20199;-70
2023/06/02 03:21:41;;;;;;;0.63;0.63;;;;;;;21.14;100.00;99882.72;5053391;28;20196;-70
2023/06/02 03:24:11;;;;;;;0.70;0.70;;;;;;;21.59;100.00;99896.19;5053195;28;20192;-70
2023/06/02 03:26:40;;;;;;;0.60;0.60;;;;;;;22.06;100.00;99904.34;5053633;28;20210;-70
2023/06/02 03:29:07;;;;;;;0.70;0.70;;;;;;;22.32;100.00;99906.06;5053007;28;20192;-71
2023/06/02 03:31:34;;;;;;;0.65;0.65;;;;;;;22.66;100.00;99903.91;5052953;28;20195;-71
2023/06/02 03:34:01;;;;;;;0.60;0.60;;;;;;;23.14;100.00;99909.16;5052665;28;20219;-71
2023/06/02 03:36:28;;;;;;;0.60;0.60;;;;;;;23.38;100.00;99896.75;5052584;28;20199;-70
2023/06/02 03:38:55;;;;;;;0.60;0.60;;;;;;;24.04;100.00;99904.56;5053134;28;20199;-71
2023/06/02 03:41:23;;;;;;;0.60;0.60;;;;;;;24.71;100.00;99919.31;5052893;28;20231;-71
2023/06/02 03:43:50;;;;;;;1.00;1.00;;;;;;;25.02;100.00;99914.34;5052811;28;20196;-70
2023/06/02 03:46:16;;;;;;;0.70;0.70;;;;;;;25.38;100.00;99909.97;5053144;28;20558;-71
2023/06/02 03:48:43;;;;;;;0.60;0.60;;;;;;;25.72;100.00;99926.94;5053229;28;20188;-71
2023/06/02 03:51:10;;;;;;;0.80;0.80;;;;;;;25.96;95.73;99905.31;5052645;28;20210;-71
2023/06/02 03:53:37;;;;;;;0.60;0.60;;;;;;;26.40;91.87;99932.28;5052802;28;20195;-71
2023/06/02 03:56:03;;;;;;;1.10;1.10;;;;;;;26.59;89.16;99933.03;5052920;28;20196;-72
2023/06/02 03:58:32;;;;;;;0.60;0.60;;;;;;;26.98;86.23;99930.06;5017222;28;20200;-72
2023/06/02 04:00:58;;;;;;;0.70;0.70;;;;;;;26.91;84.76;99928.69;5051187;28;20192;-72
2023/06/02 04:03:25;;;;;;;0.70;0.70;;;;;;;27.41;83.76;99927.69;5058848;28;20199;-72
2023/06/02 04:05:52;;;;;;;0.60;0.60;;;;;;;27.41;81.37;99898.38;5060111;28;20195;-72
2023/06/02 04:08:19;;;;;;;0.60;0.60;;;;;;;27.84;78.13;99926.97;5062761;28;20192;-72
2023/06/02 04:10:46;;;;;;;0.57;0.57;;;;;;;27.94;75.39;99928.16;5060412;28;20206;-69
2023/06/02 04:13:12;;;;;;;0.57;0.57;;;;;;;28.18;76.78;99909.88;5062070;28;20213;-67
2023/06/02 04:15:41;;;;;;;0.70;0.70;;;;;;;28.61;73.23;99929.44;5060006;28;20705;-68
2023/06/02 04:18:07;;;;;;;0.57;0.57;;;;;;;28.64;67.06;99933.75;5051275;28;20199;-67
2023/06/02 04:20:34;;;;;;;1.58;1.58;;;;;;;28.57;67.35;99928.78;5051858;28;20198;-68
2023/06/02 04:23:01;;;;;;;0.80;0.80;;;;;;;28.40;68.82;99928.97;5016606;28;20681;-69
2023/06/02 04:25:28;;;;;;;0.50;0.50;;;;;;;28.32;69.52;99927.72;5051381;28;20206;-72
2023/06/02 04:27:54;;;;;;;0.50;0.50;;;;;;;28.18;70.88;99925.03;5052084;28;20211;-72
2023/06/02 04:30:21;;;;;;;0.60;0.60;;;;;;;28.01;72.89;99921.50;5051145;28;20198;-72
2023/06/02 04:32:50;;;;;;;0.65;0.65;;;;;;;28.38;70.81;99928.22;5051069;28;20241;-71
2023/06/02 04:35:17;;;;;;;0.60;0.60;;;;;;;28.32;70.07;99930.38;5051228;28;20226;-72
2023/06/02 04:37:46;;;;;;;0.60;0.60;;;;;;;28.33;70.52;99929.41;5032726;28;20261;-72
2023/06/02 04:40:13;;;;;;;0.50;0.50;;;;;;;28.46;70.09;99906.41;5051142;28;20222;-71
2023/06/02 04:42:40;;;;;;;0.77;0.77;;;;;;;28.85;67.64;99927.13;5048339;28;20191;-72
2023/06/02 04:45:12;;;;;;;0.70;0.70;;;;;;;28.81;66.54;99929.13;5051152;28;20561;-72
2023/06/02 04:47:41;;;;;;;0.73;0.73;;;;;;;28.79;66.82;99932.84;5049561;28;20218;-72
2023/06/02 04:50:10;;;;;;;0.60;0.60;;;;;;;28.71;65.25;99914.66;5051080;28;20199;-71
2023/06/02 04:52:39;;;;;;;0.55;0.55;;;;;;;28.77;65.46;99930.25;5047796;28;20218;-72
2023/06/02 04:55:09;;;;;;;0.50;0.50;;;;;;;28.69;66.26;99935.22;5051421;28;20234;-72
2023/06/02 04:57:36;;;;;;;3.03;0.88;;;;;;;29.00;66.03;99921.66;5013481;28;20198;-71
2023/06/02 05:00:04;;;;;;;0.60;0.60;;;;;;;29.74;60.64;99926.66;5047715;28;20317;-71
2023/06/02 05:02:31;;;;;;;0.50;0.50;;;;;;;29.15;59.70;99908.28;5051365;28;20240;-72
2023/06/02 05:04:58;;;;;;;0.60;0.60;;;;;;;29.40;59.91;99924.47;5051519;28;20214;-72
2023/06/02 05:07:27;;;;;;;0.60;0.60;;;;;;;29.36;60.00;99931.84;5015337;28;20206;-72
2023/06/02 05:09:54;;;;;;;0.55;0.55;;;;;;;29.26;59.19;99905.78;5051156;28;20199;-72
2023/06/02 05:12:21;;;;;;;0.47;0.47;;;;;;;29.38;59.08;99926.41;5015853;28;20214;-71
2023/06/02 05:14:47;;;;;;;0.68;0.68;;;;;;;29.39;58.97;99928.13;5050532;28;20223;-72
2023/06/02 05:17:21;;;;;;;0.60;0.60;;;;;;;29.47;58.80;99936.47;5050379;28;20278;-76
2023/06/02 05:19:48;;;;;;;0.73;0.73;;;;;;;29.50;58.38;99942.47;5051104;28;20290;-73
2023/06/02 05:22:15;;;;;;;0.60;0.60;;;;;;;29.90;57.95;99929.19;5049511;28;20207;-72
2023/06/02 05:24:44;;;;;;;0.60;0.60;;;;;;;30.29;56.32;99933.66;5045089;28;20203;-72
2023/06/02 05:27:10;;;;;;;0.90;0.90;;;;;;;29.97;56.94;99934.03;5046950;28;20670;-72
2023/06/02 05:29:37;;;;;;;0.63;0.63;;;;;;;30.18;56.93;99933.56;5050990;28;20206;-72
2023/06/02 05:32:04;;;;;;;0.60;0.60;;;;;;;29.88;56.78;99937.34;5049733;28;20333;-69
2023/06/02 05:34:32;;;;;;;0.57;0.57;;;;;;;29.97;57.97;99923.34;5016131;28;20231;-72
2023/06/02 05:36:59;;;;;;;0.50;0.50;;;;;;;30.08;56.77;99935.97;5051137;28;20210;-70
2023/06/02 05:39:26;;;;;;;0.80;0.80;;;;;;;30.13;56.79;99931.19;5050877;28;20223;-72
2023/06/02 05:41:54;;;;;;;0.50;0.50;;;;;;;29.74;57.57;99928.47;5013410;28;20669;-72
2023/06/02 05:44:21;;;;;;;0.60;0.60;;;;;;;29.29;59.58;99922.50;5051085;28;20203;-72
2023/06/02 05:46:47;;;;;;;0.60;0.60;;;;;;;29.64;61.28;99933.59;5051286;28;20207;-72
2023/06/02 05:49:14;;;;;;;0.60;0.60;;;;;;;29.92;60.58;99933.50;5051133;28;20206;-72
2023/06/02 05:51:41;;;;;;;0.60;0.60;;;;;;;29.39;62.38;99867.53;5032413;28;20218;-77
2023/06/02 05:54:09;;;;;;;0.60;0.60;;;;;;;29.50;61.94;99921.09;5045821;28;20210;-75
2023/06/02 05:56:35;;;;;;;0.70;0.70;;;;;;;29.04;64.04;99917.84;5049385;28;20285;-75
2023/06/02 05:59:03;;;;;;;0.65;0.65;;;;;;;29.02;63.92;99927.78;5016166;28;20677;-76
2023/06/02 06:01:30;;;;;;;0.60;0.60;;;;;;;28.44;68.28;99933.16;5051216;28;20278;-75
2023/06/02 06:03:57;;;;;;;0.70;0.70;;;;;;;28.00;72.40;99941.09;5054053;28;20207;-75
2023/06/02 06:06:24;;;;;;;0.60;0.60;;;;;;;27.77;74.29;99933.59;5049343;28;20208;-74
2023/06/02 06:08:51;;;;;;;0.70;0.70;;;;;;;28.02;74.25;99941.88;5019264;28;20203;-75
2023/06/02 06:11:18;;;;;;;0.68;0.68;;;;;;;28.71;70.46;99935.13;5053228;28;20280;-74
2023/06/02 06:13:44;;;;;;;0.70;0.70;;;;;;;28.33;68.01;99878.72;5052799;28;20211;-75
2023/06/02 06:16:13;;;;;;;0.70;0.70;;;;;;;28.21;69.01;99919.50;5052359;28;20674;-75
2023/06/02 06:18:39;;;;;;;0.60;0.60;;;;;;;27.61;73.87;99929.25;5053990;28;20212;-75
2023/06/02 06:21:06;;;;;;;0.90;0.90;;;;;;;27.33;73.31;99932.56;5052570;28;20298;-75
2023/06/02 06:23:33;;;;;;;0.60;0.60;;;;;;;27.09;74.28;99933.00;5053163;28;20222;-75
2023/06/02 06:26:00;;;;;;;0.60;0.60;;;;;;;26.90;77.23;99936.75;5052815;28;20261;-76
2023/06/02 06:28:26;;;;;;;0.70;0.70;;;;;;;27.04;77.81;99929.72;5052943;28;20214;-75
2023/06/02 06:30:53;;;;;;;0.70;0.70;;;;;;;26.95;78.48;99932.03;5053613;28;20269;-76
2023/06/02 06:33:21;;;;;;;0.73;0.73;;;;;;;26.58;78.19;99930.47;5041970;28;20724;-76
2023/06/02 06:35:48;;;;;;;0.70;0.70;;;;;;;26.11;83.44;99931.09;5054347;28;20236;-76
2023/06/02 06:38:15;;;;;;;1.00;1.00;;;;;;;26.01;85.16;99923.66;5054152;28;20204;-76
2023/06/02 06:40:42;;;;;;;0.70;0.70;;;;;;;26.11;86.09;99925.78;5054067;28;20730;-74
2023/06/02 06:43:09;;;;;;;0.70;0.70;;;;;;;26.18;85.04;99931.69;5053623;28;20232;-72
2023/06/02 06:45:36;;;;;;;0.80;0.80;;;;;;;26.15;84.56;99930.00;5053852;28;20204;-72
2023/06/02 06:48:06;;;;;;;0.65;0.65;;;;;;;25.93;84.17;99926.75;5018992;28;20207;-74
2023/06/02 06:50:34;;;;;;;0.63;0.63;;;;;;;25.69;84.87;99913.78;5053650;28;20199;-74
2023/06/02 06:53:02;;;;;;;1.00;1.00;;;;;;;25.45;86.82;99918.47;5053499;28;20214;-74
2023/06/02 06:55:29;;;;;;;0.80;0.80;;;;;;;25.31;89.75;99910.31;5026699;28;20723;-73
2023/06/02 06:57:56;;;;;;;0.90;0.90;;;;;;;25.22;90.57;99910.78;5053499;28;20211;-74
2023/06/02 07:00:23;;;;;;;0.60;0.60;;;;;;;25.36;93.34;99922.47;5053439;28;20637;-75
2023/06/02 07:02:51;;;;;;;1.02;1.02;;;;;;;25.59;90.81;99921.34;5053815;28;20195;-73
2023/06/02 07:05:17;;;;;;;0.70;0.70;;;;;;;25.71;91.34;99912.81;5053071;28;20610;-73
2023/06/02 07:07:46;;;;;;;0.93;0.93;;;;;;;25.92;88.70;99919.69;5053047;28;20212;-72
2023/06/02 07:10:14;;;;;;;0.70;0.70;;;;;;;25.96;87.28;99920.41;5052457;28;20219;-72
2023/06/02 07:12:41;;;;;;;0.65;0.65;;;;;;;25.90;87.96;99921.56;5053291;28;20207;-73
2023/06/02 07:15:08;;;;;;;0.63;0.63;;;;;;;25.64;87.44;99852.97;5052837;28;20230;-72
2023/06/02 07:17:35;;;;;;;0.80;0.80;;;;;;;26.08;88.14;99925.06;5018034;28;20326;-73
2023/06/02 07:20:02;;;;;;;0.98;0.98;;;;;;;26.22;85.98;99913.78;5052863;28;20277;-74
2023/06/02 07:22:28;;;;;;;0.70;0.70;;;;;;;26.28;86.28;99921.44;5051828;28;20207;-73
2023/06/02 07:24:57;;;;;;;0.60;0.60;;;;;;;26.45;84.57;99921.41;5044148;28;20204;-74
2023/06/02 07:39:37;;;;;;;0.60;0.60;;;;;;;26.41;77.36;99917.19;5088262;27;20542;-73
2023/06/02 07:42:04;;;;;;;0.65;0.65;;;;;;;26.44;80.99;99931.19;5047635;28;20198;-73
2023/06/02 07:44:31;;;;;;;0.70;0.70;;;;;;;26.44;78.45;99930.31;5047916;28;20210;-73
2023/06/02 07:46:57;;;;;;;0.65;0.65;;;;;;;26.30;78.62;99940.81;5078928;28;20198;-73
2023/06/02 07:49:25;;;;;;;0.70;0.70;;;;;;;26.33;78.83;99925.56;5069662;28;20210;-73
2023/06/02 07:51:51;;;;;;;0.75;0.75;;;;;;;26.40;80.34;99942.06;5069298;28;20248;-73
2023/06/02 07:54:18;;;;;;;0.60;0.60;;;;;;;26.12;78.08;99868.16;5071563;28;20202;-74
2023/06/02 07:56:49;;;;;;;0.63;0.63;;;;;;;26.49;77.54;99930.94;5067255;28;20198;-73
2023/06/02 07:59:18;;;;;;;0.80;0.80;;;;;;;26.51;81.03;99934.38;5059522;28;20198;-73
2023/06/02 08:01:44;;;;;;;0.82;0.82;;;;;;;26.63;79.27;99931.94;5066959;28;20278;-74
2023/06/02 08:04:11;;;;;;;0.70;0.70;;;;;;;26.69;79.94;99930.75;5067404;28;20207;-74
2023/06/02 08:06:38;;;;;;;0.73;0.73;;;;;;;26.90;76.72;99932.28;5067564;28;20195;-74
2023/06/02 08:09:05;;;;;;;1.08;1.08;;;;;;;26.81;76.65;99932.75;5032384;28;20231;-74
2023/06/02 08:11:32;;;;;;;0.70;0.70;;;;;;;26.63;77.07;99928.41;5067208;28;20282;-74
2023/06/02 08:14:00;;;;;;;0.60;0.60;;;;;;;26.70;75.42;99929.81;5032250;28;20201;-73
2023/06/02 08:16:27;;;;;;;0.60;0.60;;;;;;;26.57;76.88;99907.47;5067302;28;20203;-74
2023/06/02 08:18:54;;;;;;;0.60;0.60;;;;;;;26.60;74.71;99867.41;5067472;28;20593;-74
2023/06/02 08:21:21;;;;;;;0.63;0.63;;;;;;;26.79;73.60;99934.63;5067155;28;20226;-74
2023/06/02 08:23:48;;;;;;;0.60;0.60;;;;;;;26.87;74.83;99937.78;5032394;28;20199;-74
2023/06/02 08:26:17;;;;;;;0.70;0.70;;;;;;;27.02;76.27;99936.94;5067019;28;20206;-74
2023/06/02 08:28:48;;;;;;;0.70;0.70;;;;;;;26.96;75.07;99931.97;5066817;28;20246;-74
2023/06/02 08:31:18;;;;;;;0.88;0.88;;;;;;;26.48;72.76;99929.22;5066987;28;20276;-75
2023/06/02 08:33:45;;;;;;;0.70;0.70;;;;;;;26.41;75.24;99933.16;5049168;28;20678;-74
2023/06/02 08:36:17;;;;;;;0.70;0.70;;;;;;;26.57;72.85;99934.94;5066947;28;20207;-75
2023/06/02 08:38:44;;;;;;;0.95;0.95;;;;;;;26.75;70.09;99938.41;5064104;28;20243;-75
2023/06/02 08:41:12;;;;;;;0.70;0.70;;;;;;;27.02;69.14;99936.94;5053271;28;20697;-74
2023/06/02 08:43:39;;;;;;;0.57;0.57;;;;;;;27.20;66.00;99928.88;5053571;28;20227;-74
2023/06/02 08:46:08;;;;;;;0.70;0.70;;;;;;;27.55;67.05;99935.78;5053555;28;20238;-74
2023/06/02 08:48:37;;;;;;;0.60;0.60;;;;;;;27.70;62.50;99923.38;5053852;28;20219;-76
2023/06/02 08:51:09;;;;;;;0.60;0.60;;;;;;;27.75;64.00;99914.19;5053614;28;20200;-77
2023/06/02 08:53:37;;;;;;;0.80;0.80;;;;;;;27.81;61.65;99913.84;5052554;28;20200;-76
2023/06/02 08:56:05;;;;;;;0.60;0.60;;;;;;;27.96;60.24;99930.75;5053087;28;20264;-76
2023/06/02 08:58:32;;;;;;;0.60;0.60;;;;;;;27.95;60.25;99918.34;5056924;28;20200;-80
2023/06/02 09:00:59;;;;;;;0.73;0.73;;;;;;;27.91;54.95;99939.00;5065819;28;20202;-78
2023/06/02 09:03:27;;;;;;;0.60;0.60;;;;;;;27.88;58.30;99906.34;5056375;28;20682;-78
2023/06/02 09:05:55;;;;;;;0.60;0.60;;;;;;;28.15;56.99;99926.03;5071495;28;20229;-78
2023/06/02 09:08:22;;;;;;;0.70;0.70;;;;;;;28.26;57.74;99920.94;5022352;28;20228;-79
2023/06/02 09:10:49;;;;;;;1.13;1.13;;;;;;;27.88;55.98;99920.53;5053250;28;20227;-78
2023/06/02 09:13:30;;;;;;;0.60;0.60;;;;;;;27.71;55.46;99899.34;5054157;28;20200;-77
2023/06/02 09:15:58;;;;;;;0.60;0.60;;;;;;;27.62;57.09;99915.84;5067725;28;20203;-74
2023/06/02 09:18:25;;;;;;;0.55;0.55;;;;;;;27.68;58.60;99882.66;5034347;28;20214;-75
2023/06/02 09:20:52;;;;;;;0.70;0.70;;;;;;;27.94;57.19;99884.63;5066531;28;20206;-75
2023/06/02 09:23:20;;;;;;;0.65;0.65;;;;;;;28.23;55.42;99904.25;5059768;28;20210;-76
2023/06/02 09:25:47;;;;;;;0.60;0.60;;;;;;;28.36;56.00;99908.75;5072926;28;20681;-77
2023/06/02 09:28:14;;;;;;;0.60;0.60;;;;;;;28.27;55.24;99900.47;5066015;28;20326;-82
2023/06/02 09:30:41;;;;;;;0.70;0.70;;;;;;;28.15;54.72;99896.72;5035660;28;20286;-75
2023/06/02 09:33:09;;;;;;;0.60;0.60;;;;;;;28.30;53.60;99903.78;5060587;28;20774;-75
2023/06/02 09:35:40;;;;;;;0.70;0.70;;;;;;;28.47;54.32;99905.44;5063281;28;20203;-76
2023/06/02 09:38:09;;;;;;;0.70;0.70;;;;;;;28.47;53.96;99895.63;5059144;28;20235;-76
2023/06/02 09:40:38;;;;;;;0.60;0.60;;;;;;;28.43;52.27;99901.25;5072768;28;20211;-78
2023/06/02 09:43:07;;;;;;;0.60;0.60;;;;;;;28.58;52.75;99898.47;5062128;28;20207;-78
2023/06/02 09:45:34;;;;;;;0.60;0.60;;;;;;;28.60;51.76;99895.72;5072627;28;20202;-77
2023/06/02 09:48:01;;;;;;;0.60;0.60;;;;;;;28.23;47.89;99881.13;5061806;28;20231;-76
2023/06/02 09:50:38;;;;;;;0.50;0.50;;;;;;;28.44;49.04;99869.13;5071522;28;20632;-75
2023/06/02 09:53:06;;;;;;;0.60;0.60;;;;;;;28.58;46.68;99878.94;5042865;28;20633;-76
2023/06/02 09:55:35;;;;;;;0.60;0.60;;;;;;;28.48;45.84;99868.00;5058227;28;20565;-76
2023/06/02 09:58:04;;;;;;;0.60;0.60;;;;;;;28.56;45.42;99872.84;5062126;28;20258;-75
2023/06/02 10:00:31;;;;;;;0.70;0.70;;;;;;;28.92;45.37;99870.56;5070804;28;20199;-76
2023/06/02 10:02:59;;;;;;;0.50;0.50;;;;;;;29.08;45.83;99859.75;5062826;28;20211;-75
2023/06/02 10:05:26;;;;;;;0.57;0.57;;;;;;;29.18;46.29;99854.69;5068139;28;20289;-77
2023/06/02 10:08:02;;;;;;;0.50;0.50;;;;;;;29.23;46.35;99863.25;5063403;28;20285;-77
2023/06/02 10:10:42;;;;;;;0.60;0.60;;;;;;;29.42;47.10;99853.13;5052326;28;20633;-76
2023/06/02 10:13:30;;;;;;;0.60;0.60;;;;;;;29.52;43.52;99854.22;5052523;28;20203;-76
2023/06/02 10:16:13;;;;;;;0.60;0.60;;;;;;;29.64;44.71;99853.41;5052379;28;20195;-77
2023/06/02 10:19:02;;;;;;;0.50;0.50;;;;;;;29.85;46.54;99838.63;5052277;28;20203;-75
2023/06/02 10:21:42;;;;;;;0.60;0.60;;;;;;;29.63;45.17;99842.81;5052438;28;20208;-75
2023/06/02 10:24:19;;;;;;;0.50;0.50;;;;;;;29.56;45.96;99834.34;5052566;28;20207;-76
2023/06/02 10:27:03;;;;;;;0.57;0.57;;;;;;;29.48;45.62;99834.00;5052368;28;20195;-77
2023/06/02 10:29:33;;;;;;;0.77;0.77;;;;;;;29.26;46.51;99836.31;5051885;28;20277;-78
2023/06/02 10:32:01;;;;;;;0.60;0.60;;;;;;;29.37;44.72;99828.50;5052131;28;20207;-79
2023/06/02 10:34:38;;;;;;;0.70;0.70;;;;;;;29.59;44.80;99826.13;5033562;28;20253;-76
2023/06/02 10:37:15;;;;;;;0.60;0.60;;;;;;;29.65;44.85;99822.16;4984723;28;20698;-76
2023/06/02 10:39:53;;;;;;;0.73;0.73;;;;;;;29.78;45.05;99823.94;5032351;28;20260;-77
2023/06/02 10:42:21;;;;;;;0.70;0.70;;;;;;;29.61;43.40;99820.69;5033949;28;20724;-78
2023/06/02 10:44:51;;;;;;;0.70;0.70;;;;;;;29.29;43.03;99802.28;5051970;28;20265;-77
2023/06/02 10:47:37;;;;;;;0.60;0.60;;;;;;;29.49;42.61;99817.00;5051922;28;20677;-76
2023/06/02 10:50:07;;;;;;;0.60;0.60;;;;;;;29.41;43.39;99809.50;5051795;28;20230;-77
2023/06/02 10:52:35;;;;;;;0.65;0.65;;;;;;;29.66;41.75;99810.50;5052136;28;20827;-76
2023/06/02 10:55:30;;;;;;;0.70;0.70;;;;;;;29.63;42.13;99803.56;5052213;28;20199;-80
2023/06/02 10:57:58;;;;;;;0.60;0.60;;;;;;;29.62;41.78;99793.84;5051544;28;20191;-80
2023/06/02 11:00:45;;;;;;;0.60;0.60;;;;;;;29.90;41.72;99793.69;5052692;28;20264;-80
2023/06/02 11:03:32;;;;;;;0.60;0.60;;;;;;;30.03;40.38;99791.03;5055399;28;20209;-77
2023/06/02 11:06:20;;;;;;;0.60;0.60;;;;;;;30.09;42.40;99782.56;5051250;28;20290;-74
2023/06/02 11:08:48;;;;;;;0.70;0.70;;;;;;;30.07;44.44;99759.59;5051405;28;20231;-75
2023/06/02 11:11:48;;;;;;;0.50;0.50;;;;;;;30.10;40.19;99780.75;5051977;28;20592;-77
2023/06/02 11:14:15;;;;;;;2.42;2.22;;;;;;;29.85;41.22;99766.44;5052134;28;20253;-77
2023/06/02 11:16:43;;;;;;;0.70;0.70;;;;;;;29.97;43.65;99762.03;5052215;28;20198;-78
2023/06/02 11:19:10;;;;;;;0.93;0.93;;;;;;;30.10;41.66;99765.56;5051837;28;20248;-75
2023/06/02 11:21:37;;;;;;;0.60;0.60;;;;;;;29.96;37.71;99763.88;5051375;28;20656;-75
2023/06/02 11:24:05;;;;;;;0.60;0.60;;;;;;;30.22;38.43;99771.84;5051448;28;20241;-76
2023/06/02 11:26:32;;;;;;;0.60;0.60;;;;;;;30.27;40.44;99759.88;5051588;28;20688;-76
2023/06/02 11:29:15;;;;;;;0.60;0.60;;;;;;;30.26;40.67;99757.28;5051886;28;20227;-75
2023/06/02 11:31:49;;;;;;;0.65;0.65;;;;;;;30.20;38.73;99761.28;5051510;28;20645;-77
2023/06/02 11:34:17;;;;;;;0.70;0.70;;;;;;;30.21;39.91;99756.78;5016540;28;20203;-76
2023/06/02 11:36:48;;;;;;;0.60;0.60;;;;;;;29.98;38.36;99756.59;5051479;28;20286;-76
2023/06/02 11:39:15;;;;;;;0.70;0.70;;;;;;;29.99;38.02;99752.09;5051791;28;20246;-76
2023/06/02 11:41:56;;;;;;;0.50;0.50;;;;;;;30.20;38.07;99752.38;5016654;28;20231;-75
2023/06/02 11:44:23;;;;;;;0.70;0.70;;;;;;;30.35;40.15;99754.84;5053124;28;20234;-76
2023/06/02 11:46:51;;;;;;;0.60;0.60;;;;;;;30.19;38.91;99731.94;5016458;28;20199;-75
2023/06/02 11:49:18;;;;;;;0.80;0.80;;;;;;;30.13;39.41;99753.78;5051353;28;20310;-76
2023/06/02 11:51:45;;;;;;;0.50;0.50;;;;;;;30.14;38.44;99751.03;5051637;28;20206;-77